Terminal Aerodrome Forecast
Issued by NWS

Home | Current Version | Previous Version | Graphics & Text | Print | Product List | Glossary On
Versions: 1 2 3 4 5 6 7 8 9 10 11 12 13 14 15 16 17 18 19 20 21 22 23 24 25 26
896
FTUS43 KBIS 221731
TAFJMS
TAF
KJMS 221731Z 2218/2318 01013KT 2SM -SN BR OVC003
      TEMPO 2218/2222 1SM -SN BR OVC007
     FM230000 36013KT P6SM OVC015
     FM230600 36008KT 3SM BR OVC008
     FM231600 03009KT P6SM BKN015=

USA.gov is the U.S. government's official web portal to all federal, state and local government web resources and services.